createdAt,value
2017-11-12T00:00:06.964Z,14.23
2017-11-12T00:02:35.346Z,14.17
2017-11-12T00:05:03.717Z,13.77
2017-11-12T00:07:32.068Z,13.83
2017-11-12T00:10:00.440Z,14.33
2017-11-12T00:12:28.799Z,13.43
2017-11-12T00:14:57.165Z,13.90
2017-11-12T00:17:25.534Z,15.03
2017-11-12T00:19:53.910Z,13.30
2017-11-12T00:22:22.278Z,12.80
2017-11-12T00:24:50.645Z,13.70
2017-11-12T00:27:19.772Z,14.03
2017-11-12T00:29:48.133Z,13.53
2017-11-12T00:32:16.486Z,14.80
2017-11-12T00:34:45.615Z,16.40
2017-11-12T00:37:13.984Z,12.97
2017-11-12T00:39:42.356Z,13.40
2017-11-12T00:42:10.717Z,13.93
2017-11-12T00:44:39.856Z,12.60
2017-11-12T00:47:08.220Z,13.53
2017-11-12T00:49:36.589Z,13.30
2017-11-12T00:52:05.716Z,20.03
2017-11-12T00:54:34.079Z,14.03
2017-11-12T00:57:02.446Z,16.70
2017-11-12T00:59:30.814Z,14.17
2017-11-12T01:01:59.953Z,15.07
2017-11-12T01:04:28.316Z,15.20
2017-11-12T01:06:56.685Z,11.77
2017-11-12T01:09:25.044Z,13.57
2017-11-12T01:11:54.178Z,14.67
2017-11-12T01:14:22.544Z,13.90
2017-11-12T01:16:50.915Z,16.07
2017-11-12T01:19:19.268Z,13.00
2017-11-12T01:21:48.828Z,14.03
2017-11-12T01:24:17.380Z,15.20
2017-11-12T01:26:46.507Z,15.83
2017-11-12T01:29:14.868Z,13.20
2017-11-12T01:31:43.237Z,13.47
2017-11-12T01:34:11.599Z,15.43
2017-11-12T01:36:40.723Z,12.60
2017-11-12T01:39:09.086Z,15.93
2017-11-12T01:41:38.218Z,13.23
2017-11-12T01:44:06.581Z,12.80
2017-11-12T01:46:34.950Z,14.50
2017-11-12T01:49:03.306Z,10.20
2017-11-12T01:51:32.439Z,11.50
2017-11-12T01:54:00.805Z,17.37
2017-11-12T01:56:29.165Z,14.00
2017-11-12T01:58:58.299Z,14.27
2017-11-12T02:01:26.665Z,12.40
2017-11-12T02:03:55.042Z,13.10
2017-11-12T02:06:23.408Z,14.80
2017-11-12T02:08:52.555Z,13.07
2017-11-12T02:11:20.928Z,15.13
2017-11-12T02:13:49.295Z,14.47
2017-11-12T02:16:17.667Z,15.97
2017-11-12T02:18:46.040Z,13.67
2017-11-12T02:21:14.413Z,18.47
2017-11-12T02:23:42.786Z,18.17
2017-11-12T02:26:11.163Z,18.27
2017-11-12T02:28:39.524Z,15.43
2017-11-12T02:31:08.651Z,15.20
2017-11-12T02:33:37.014Z,14.93
2017-11-12T02:36:06.147Z,14.37
2017-11-12T02:38:34.521Z,14.73
2017-11-12T02:41:02.888Z,18.57
2017-11-12T02:43:31.281Z,15.17
2017-11-12T02:45:59.640Z,17.53
2017-11-12T02:48:28.013Z,14.43
2017-11-12T02:50:56.396Z,17.80
2017-11-12T02:53:24.790Z,18.77
2017-11-12T02:55:53.164Z,17.83
2017-11-12T02:58:21.532Z,14.10
2017-11-12T03:00:49.901Z,18.67
2017-11-12T03:03:19.046Z,15.60
2017-11-12T03:05:47.416Z,18.83
2017-11-12T03:08:15.785Z,14.57
2017-11-12T03:10:44.140Z,17.03
2017-11-12T03:13:13.264Z,17.90
2017-11-12T03:15:41.631Z,19.47
2017-11-12T03:18:09.997Z,15.23
2017-11-12T03:20:38.373Z,16.37
2017-11-12T03:23:06.741Z,19.73
2017-11-12T03:25:35.883Z,19.70
2017-11-12T03:28:04.245Z,16.37
2017-11-12T03:30:32.608Z,16.73
2017-11-12T03:33:00.976Z,17.63
2017-11-12T03:35:30.107Z,18.23
2017-11-12T03:37:58.458Z,19.33
2017-11-12T03:40:27.592Z,21.00
2017-11-12T03:42:55.951Z,18.77
2017-11-12T03:45:24.316Z,17.37
2017-11-12T03:47:52.697Z,18.40
2017-11-12T03:50:21.066Z,18.80
2017-11-12T03:52:50.200Z,20.03
2017-11-12T03:55:18.564Z,25.67
2017-11-12T03:57:46.935Z,18.07
2017-11-12T04:00:15.304Z,17.87
2017-11-12T04:02:44.441Z,25.90
2017-11-12T04:05:12.814Z,25.13
2017-11-12T04:07:41.171Z,21.50
2017-11-12T04:10:09.545Z,24.97
2017-11-12T04:12:37.922Z,21.27
2017-11-12T04:15:06.292Z,20.33
2017-11-12T04:17:35.427Z,20.37
2017-11-12T04:20:03.793Z,25.57
2017-11-12T04:22:32.161Z,21.80
2017-11-12T04:25:00.531Z,23.47
2017-11-12T04:27:28.904Z,23.43
2017-11-12T04:29:58.039Z,22.90
2017-11-12T04:32:26.434Z,20.73
2017-11-12T04:34:54.783Z,20.80
2017-11-12T04:37:23.153Z,24.80
2017-11-12T04:39:51.529Z,21.33
2017-11-12T04:42:19.897Z,20.37
2017-11-12T04:44:49.035Z,25.43
2017-11-12T04:47:17.390Z,21.50
2017-11-12T04:49:45.763Z,25.83
2017-11-12T04:52:14.140Z,21.50
2017-11-12T04:54:43.276Z,24.63
2017-11-12T04:57:11.647Z,24.70
2017-11-12T04:59:40.044Z,26.80
2017-11-12T05:02:08.415Z,20.23
2017-11-12T05:04:36.789Z,23.87
2017-11-12T05:07:05.157Z,20.30
2017-11-12T05:09:33.524Z,21.40
2017-11-12T05:12:01.890Z,24.50
2017-11-12T05:14:31.016Z,23.57
2017-11-12T05:16:59.375Z,19.00
2017-11-12T05:19:27.749Z,21.37
2017-11-12T05:21:56.129Z,19.33
2017-11-12T05:24:24.501Z,21.67
2017-11-12T05:26:53.650Z,22.23
2017-11-12T05:29:22.030Z,22.10
2017-11-12T05:31:50.399Z,22.27
2017-11-12T05:34:18.772Z,23.37
2017-11-12T05:36:47.141Z,21.77
2017-11-12T05:39:15.528Z,28.37
2017-11-12T05:41:43.906Z,25.57
2017-11-12T05:44:12.273Z,22.47
2017-11-12T05:46:40.639Z,21.93
2017-11-12T05:49:09.024Z,25.03
2017-11-12T05:51:37.398Z,24.00
2017-11-12T05:54:05.761Z,22.97
2017-11-12T05:56:34.892Z,27.33
2017-11-12T05:59:03.265Z,24.53
2017-11-12T06:01:31.632Z,22.57
2017-11-12T06:04:00.005Z,28.73
2017-11-12T06:06:28.383Z,22.50
2017-11-12T06:08:57.524Z,21.87
2017-11-12T06:11:25.895Z,24.43
2017-11-12T06:13:54.266Z,23.90
2017-11-12T06:16:22.621Z,22.53
2017-11-12T06:18:50.989Z,22.40
2017-11-12T06:21:20.124Z,26.60
2017-11-12T06:23:48.487Z,25.40
2017-11-12T06:26:16.851Z,23.03
2017-11-12T06:28:45.988Z,26.03
2017-11-12T06:31:14.360Z,26.17
2017-11-12T06:33:42.723Z,22.93
2017-11-12T06:36:11.101Z,21.37
2017-11-12T06:38:39.471Z,28.43
2017-11-12T06:41:07.841Z,24.40
2017-11-12T06:43:36.980Z,22.27
2017-11-12T06:46:05.357Z,26.87
2017-11-12T06:48:33.728Z,24.93
2017-11-12T06:51:02.087Z,22.67
2017-11-12T06:53:30.450Z,28.63
2017-11-12T06:55:59.588Z,22.90
2017-11-12T06:58:27.954Z,18.03
2017-11-12T07:00:56.323Z,20.23
2017-11-12T07:03:24.693Z,29.33
2017-11-12T07:05:53.054Z,22.20
2017-11-12T07:08:22.193Z,18.90
2017-11-12T07:10:50.558Z,23.27
2017-11-12T07:13:18.929Z,21.43
2017-11-12T07:15:47.310Z,22.63
2017-11-12T07:18:15.682Z,26.47
2017-11-12T07:20:44.821Z,21.40
2017-11-12T07:23:13.181Z,19.67
2017-11-12T07:25:41.546Z,19.73
2017-11-12T07:28:09.916Z,22.03
2017-11-12T07:30:39.053Z,15.10
2017-11-12T07:33:07.411Z,16.37
2017-11-12T07:35:35.776Z,14.07
2017-11-12T07:38:04.911Z,16.50
2017-11-12T07:40:33.273Z,17.70
2017-11-12T07:43:01.648Z,15.77
2017-11-12T07:45:30.020Z,15.87
2017-11-12T07:47:58.397Z,14.43
2017-11-12T07:50:26.790Z,19.60
2017-11-12T07:52:55.159Z,15.43
2017-11-12T07:55:23.532Z,12.10
2017-11-12T07:57:51.905Z,16.00
2017-11-12T08:00:20.284Z,12.13
2017-11-12T08:02:48.655Z,14.13
2017-11-12T08:05:17.792Z,12.13
2017-11-12T08:07:46.167Z,14.57
2017-11-12T08:10:14.541Z,11.60
2017-11-12T08:12:42.907Z,15.23
2017-11-12T08:15:11.277Z,9.60
2017-11-12T08:17:40.419Z,15.33
2017-11-12T08:20:08.801Z,12.80
2017-11-12T08:22:37.172Z,14.23
2017-11-12T08:25:05.546Z,12.13
2017-11-12T08:27:33.915Z,13.10
2017-11-12T08:30:02.276Z,16.97
2017-11-12T08:32:30.671Z,16.97
2017-11-12T08:34:59.032Z,9.37
2017-11-12T08:37:27.414Z,12.67
2017-11-12T08:39:55.789Z,15.30
2017-11-12T08:42:24.161Z,12.77
2017-11-12T08:44:53.295Z,12.73
2017-11-12T08:47:21.665Z,12.47
2017-11-12T08:49:50.027Z,12.77
2017-11-12T08:52:18.390Z,14.60
2017-11-12T08:54:47.524Z,15.17
2017-11-12T08:57:15.888Z,11.33
2017-11-12T08:59:44.264Z,10.43
2017-11-12T09:02:12.631Z,15.80
2017-11-12T09:04:41.776Z,10.27
2017-11-12T09:07:10.149Z,7.63
2017-11-12T09:09:38.522Z,10.50
2017-11-12T09:12:06.896Z,11.70
2017-11-12T09:14:35.258Z,12.43
2017-11-12T09:17:03.631Z,11.67
2017-11-12T09:19:32.001Z,9.57
2017-11-12T09:22:01.132Z,14.33
2017-11-12T09:24:29.492Z,14.67
2017-11-12T09:26:57.860Z,14.57
2017-11-12T09:29:26.232Z,7.70
2017-11-12T09:31:55.372Z,10.57
2017-11-12T09:34:23.744Z,12.13
2017-11-12T09:36:52.108Z,14.00
2017-11-12T09:39:20.478Z,13.40
2017-11-12T09:41:48.844Z,14.70
2017-11-12T09:44:17.978Z,11.03
2017-11-12T09:46:46.345Z,11.83
2017-11-12T09:49:14.709Z,9.47
2017-11-12T09:51:43.096Z,17.37
2017-11-12T09:54:11.465Z,12.23
2017-11-12T09:56:39.832Z,11.60
2017-11-12T09:59:08.981Z,9.00
2017-11-12T10:01:37.352Z,10.70
2017-11-12T10:04:05.721Z,12.60
2017-11-12T10:06:34.088Z,12.77
2017-11-12T10:09:02.472Z,10.80
2017-11-12T10:11:30.839Z,13.83
2017-11-12T10:13:59.200Z,11.57
2017-11-12T10:16:29.159Z,10.83
2017-11-12T10:18:57.524Z,9.07
2017-11-12T10:21:25.896Z,10.67
2017-11-12T10:23:54.269Z,20.20
2017-11-12T10:26:22.632Z,11.97
2017-11-12T10:28:51.767Z,11.40
2017-11-12T10:31:20.131Z,11.53
2017-11-12T10:33:48.517Z,10.80
2017-11-12T10:36:16.885Z,8.63
2017-11-12T10:38:45.259Z,10.57
2017-11-12T10:41:13.641Z,10.23
2017-11-12T10:43:42.006Z,11.93
2017-11-12T10:46:11.142Z,11.70
2017-11-12T10:48:39.541Z,9.73
2017-11-12T10:51:07.920Z,11.63
2017-11-12T10:53:36.308Z,7.70
2017-11-12T10:56:04.680Z,8.40
2017-11-12T10:58:33.052Z,9.97
2017-11-12T11:01:01.419Z,11.17
2017-11-12T11:03:29.793Z,9.40
2017-11-12T11:05:58.161Z,12.87
2017-11-12T11:08:26.536Z,8.40
2017-11-12T11:10:54.910Z,8.30
2017-11-12T11:13:23.283Z,10.90
2017-11-12T11:15:52.420Z,6.63
2017-11-12T11:18:20.791Z,6.77
2017-11-12T11:20:49.199Z,9.00
2017-11-12T11:23:17.564Z,8.97
2017-11-12T11:25:46.695Z,8.60
2017-11-12T11:28:15.832Z,7.90
2017-11-12T11:30:44.201Z,6.63
2017-11-12T11:33:12.567Z,7.83
2017-11-12T11:35:41.710Z,8.37
2017-11-12T11:38:10.848Z,9.50
2017-11-12T11:40:40.793Z,8.43
2017-11-12T11:43:09.163Z,7.47
2017-11-12T11:45:37.537Z,8.97
2017-11-12T11:48:06.669Z,8.10
2017-11-12T11:50:35.026Z,9.80
2017-11-12T11:53:03.395Z,6.90
2017-11-12T11:55:32.534Z,6.40
2017-11-12T11:58:00.904Z,6.90
2017-11-12T12:00:29.279Z,10.60
2017-11-12T12:02:57.661Z,5.93
2017-11-12T12:05:26.024Z,8.30
2017-11-12T12:07:54.416Z,6.80
2017-11-12T12:10:22.791Z,10.73
2017-11-12T12:12:51.151Z,8.43
2017-11-12T12:15:19.511Z,6.87
2017-11-12T12:17:48.646Z,7.57
2017-11-12T12:20:17.009Z,8.97
2017-11-12T12:22:45.389Z,10.93
2017-11-12T12:25:13.760Z,10.37
2017-11-12T12:27:42.119Z,9.20
2017-11-12T12:30:10.491Z,6.63
2017-11-12T12:32:38.869Z,6.63
2017-11-12T12:35:07.248Z,10.27
2017-11-12T12:37:35.641Z,6.97
2017-11-12T12:40:04.775Z,9.87
2017-11-12T12:42:33.165Z,9.40
2017-11-12T12:45:01.535Z,8.90
2017-11-12T12:47:29.906Z,9.70
2017-11-12T12:49:58.268Z,9.50
2017-11-12T12:52:28.027Z,10.17
2017-11-12T12:54:56.408Z,8.17
2017-11-12T12:57:24.776Z,12.73
2017-11-12T12:59:53.147Z,13.63
2017-11-12T13:02:21.513Z,10.63
2017-11-12T13:04:49.879Z,10.23
2017-11-12T13:07:18.264Z,10.80
2017-11-12T13:09:46.630Z,9.17
2017-11-12T13:12:15.770Z,10.70
2017-11-12T13:14:44.137Z,11.23
2017-11-12T13:17:12.509Z,10.40
2017-11-12T13:19:40.876Z,10.60
2017-11-12T13:22:09.254Z,10.30
2017-11-12T13:24:37.640Z,13.38
2017-11-12T13:27:06.015Z,12.13
2017-11-12T13:29:34.388Z,13.90
2017-11-12T13:32:02.764Z,12.00
2017-11-12T13:34:31.144Z,15.43
2017-11-12T13:36:59.508Z,11.37
2017-11-12T13:39:28.642Z,14.67
2017-11-12T13:41:56.999Z,14.97
2017-11-12T13:44:26.135Z,15.47
2017-11-12T13:46:54.517Z,15.50
2017-11-12T13:49:22.890Z,12.80
2017-11-12T13:51:51.269Z,15.33
2017-11-12T13:54:19.642Z,14.73
2017-11-12T13:56:48.003Z,9.53
2017-11-12T13:59:16.374Z,14.37
2017-11-12T14:01:44.799Z,13.33
2017-11-12T14:04:13.171Z,10.47
2017-11-12T14:06:41.536Z,14.40
2017-11-12T15:00:00.419Z,8.73
2017-11-12T15:02:28.780Z,9.17
2017-11-12T15:04:57.904Z,11.67
2017-11-12T15:07:26.267Z,7.73
2017-11-12T15:09:55.401Z,10.77
2017-11-12T15:12:23.764Z,10.00
2017-11-12T15:14:52.125Z,13.13
2017-11-12T15:17:21.252Z,11.73
2017-11-12T15:19:49.634Z,10.47
2017-11-12T15:22:18.087Z,11.23
2017-11-12T15:24:46.449Z,12.33
2017-11-12T15:27:15.577Z,11.03
2017-11-12T15:29:43.949Z,13.40
2017-11-12T15:32:12.318Z,9.70
2017-11-12T15:34:40.696Z,13.60
2017-11-12T15:37:09.055Z,11.53
2017-11-12T15:39:37.431Z,15.70
2017-11-12T15:42:06.568Z,15.30
2017-11-12T15:44:34.937Z,14.67
2017-11-12T15:47:03.304Z,12.17
2017-11-12T15:49:32.541Z,14.23
2017-11-12T15:52:00.928Z,17.70
2017-11-12T15:54:29.308Z,12.87
2017-11-12T15:56:57.675Z,13.97
2017-11-12T15:59:26.064Z,12.30
2017-11-12T16:01:54.428Z,14.30
2017-11-12T16:04:22.797Z,13.63
2017-11-12T16:06:51.175Z,17.90
2017-11-12T16:09:19.543Z,12.33
2017-11-12T16:11:47.911Z,12.63
2017-11-12T16:14:17.045Z,14.03
2017-11-12T16:16:45.413Z,13.53
2017-11-12T16:19:13.784Z,13.20
2017-11-12T16:21:42.269Z,20.37
2017-11-12T16:24:10.636Z,16.77
2017-11-12T16:26:39.776Z,10.50
2017-11-12T16:29:08.140Z,15.30
2017-11-12T16:31:36.499Z,14.50
2017-11-12T16:34:04.874Z,14.70
2017-11-12T16:36:33.253Z,11.63
2017-11-12T16:39:01.647Z,14.00
2017-11-12T16:41:30.017Z,17.77
2017-11-12T16:43:58.388Z,22.73
2017-11-12T16:46:26.749Z,17.80
2017-11-12T16:48:55.882Z,12.87
2017-11-12T16:51:24.249Z,11.60
2017-11-12T16:53:52.622Z,14.27
2017-11-12T16:56:21.755Z,16.37
2017-11-12T16:58:50.107Z,12.23
2017-11-12T17:01:18.471Z,15.17
2017-11-12T17:03:47.609Z,16.83
2017-11-12T17:06:15.964Z,15.57
2017-11-12T17:08:44.330Z,12.87
2017-11-12T17:11:12.715Z,14.37
2017-11-12T17:13:41.092Z,19.00
2017-11-12T17:16:09.460Z,13.13
2017-11-12T17:18:38.605Z,13.00
2017-11-12T17:21:06.971Z,17.17
2017-11-12T17:23:35.328Z,18.27
2017-11-12T17:26:03.689Z,15.93
2017-11-12T17:28:32.912Z,19.60
2017-11-12T17:31:01.310Z,18.60
2017-11-12T17:33:29.676Z,16.27
2017-11-12T17:35:58.045Z,16.87
2017-11-12T17:38:26.417Z,19.57
2017-11-12T17:40:54.782Z,19.07
2017-11-12T17:43:23.926Z,19.53
2017-11-12T17:45:52.298Z,18.33
2017-11-12T17:48:20.763Z,21.37
2017-11-12T17:50:49.163Z,20.00
2017-11-12T17:53:17.551Z,20.67
2017-11-12T17:55:45.924Z,20.73
2017-11-12T17:58:14.314Z,20.80
2017-11-12T18:00:42.686Z,21.33
2017-11-12T18:03:11.061Z,15.00
2017-11-12T18:05:39.680Z,19.37
2017-11-12T18:08:08.047Z,23.97
2017-11-12T18:10:36.416Z,21.07
2017-11-12T18:13:04.819Z,19.10
2017-11-12T18:15:33.276Z,19.30
2017-11-12T18:18:01.640Z,27.73
2017-11-12T18:20:30.009Z,25.43
2017-11-12T18:22:59.070Z,26.90
2017-11-12T18:25:28.223Z,24.00
2017-11-12T18:27:56.596Z,17.47
2017-11-12T18:30:24.964Z,20.83
2017-11-12T18:32:53.347Z,23.67
2017-11-12T18:35:21.708Z,25.60
2017-11-12T18:37:50.072Z,26.70
2017-11-12T18:40:19.203Z,25.27
2017-11-12T18:42:47.598Z,27.17
2017-11-12T18:45:15.996Z,28.30
2017-11-12T18:47:44.361Z,25.93
2017-11-12T18:50:12.738Z,26.17
2017-11-12T18:52:41.130Z,29.33
2017-11-12T18:55:12.473Z,22.43
2017-11-12T19:00:51.345Z,26.27
2017-11-12T19:06:46.492Z,26.00
2017-11-12T19:09:17.213Z,22.03
2017-11-12T19:11:46.355Z,23.83
2017-11-12T19:15:42.465Z,25.50
2017-11-12T19:18:10.732Z,20.43
2017-11-12T19:20:40.128Z,23.90
2017-11-12T19:26:13.730Z,22.87
2017-11-12T19:31:45.106Z,20.87
2017-11-12T19:34:12.674Z,21.77
2017-11-12T19:36:41.064Z,20.13
2017-11-12T19:39:08.601Z,22.10
2017-11-12T19:41:36.122Z,23.20
2017-11-12T19:44:03.644Z,24.90
2017-11-12T19:46:31.170Z,28.07
2017-11-12T19:48:58.686Z,30.13
2017-11-12T19:51:26.198Z,24.60
2017-11-12T19:53:53.728Z,27.83
2017-11-12T19:56:21.265Z,21.37
2017-11-12T19:58:48.800Z,28.53
2017-11-12T20:01:16.332Z,25.00
2017-11-12T20:03:43.855Z,22.97
2017-11-12T20:06:11.383Z,22.40
2017-11-12T20:08:38.906Z,24.87
2017-11-12T20:11:06.436Z,23.27
2017-11-12T20:13:33.946Z,23.20
2017-11-12T20:16:01.465Z,26.23
2017-11-12T20:18:29.002Z,22.23
2017-11-12T20:20:56.542Z,22.53
2017-11-12T20:23:24.058Z,23.33
2017-11-12T20:25:51.584Z,22.73
2017-11-12T20:28:19.105Z,22.50
2017-11-12T20:30:46.634Z,21.77
2017-11-12T20:33:14.165Z,23.80
2017-11-12T20:35:41.679Z,21.20
2017-11-12T20:38:09.208Z,20.03
2017-11-12T20:40:36.738Z,20.67
2017-11-12T20:43:04.266Z,19.47
2017-11-12T20:45:31.795Z,24.27
2017-11-12T20:47:59.322Z,26.93
2017-11-12T20:50:26.839Z,19.70
2017-11-12T20:52:54.364Z,24.37
2017-11-12T20:55:21.894Z,21.70
2017-11-12T20:57:49.439Z,24.03
2017-11-12T21:00:16.951Z,26.07
2017-11-12T21:02:44.476Z,22.43
2017-11-12T21:05:12.313Z,20.17
2017-11-12T21:07:39.835Z,22.03
2017-11-12T21:10:07.356Z,22.97
2017-11-12T21:12:34.874Z,22.00
2017-11-12T21:15:02.403Z,20.07
2017-11-12T21:17:30.045Z,20.60
2017-11-12T21:20:03.268Z,21.43
2017-11-12T21:22:32.572Z,22.93
2017-11-12T21:25:00.088Z,20.93
2017-11-12T21:27:28.069Z,21.87
2017-11-12T21:29:56.341Z,22.23
2017-11-12T21:32:23.866Z,17.63
2017-11-12T21:34:52.303Z,22.60
2017-11-12T21:37:22.324Z,24.17
2017-11-12T21:39:49.842Z,22.17
2017-11-12T21:42:17.374Z,23.20
2017-11-12T21:44:44.903Z,22.87
2017-11-12T21:47:12.421Z,21.50
2017-11-12T21:49:39.936Z,24.13
2017-11-12T21:52:07.468Z,22.60
2017-11-12T21:54:34.988Z,22.80
2017-11-12T21:57:02.536Z,22.17
2017-11-12T21:59:30.049Z,21.53
2017-11-12T22:01:57.566Z,22.13
2017-11-12T22:04:25.095Z,24.63
2017-11-12T22:06:52.630Z,22.13
2017-11-12T22:09:20.159Z,25.80
2017-11-12T22:11:47.671Z,24.20
2017-11-12T22:14:15.185Z,21.37
2017-11-12T22:16:42.732Z,22.33
2017-11-12T22:19:10.245Z,22.57
2017-11-12T22:21:37.764Z,21.83
2017-11-12T22:24:05.282Z,25.27
2017-11-12T22:26:32.798Z,25.40
2017-11-12T22:29:00.313Z,25.80
2017-11-12T22:31:27.835Z,22.47
2017-11-12T22:33:55.359Z,27.47
2017-11-12T22:36:22.885Z,30.27
2017-11-12T22:38:50.402Z,27.47
2017-11-12T22:41:17.923Z,22.03
2017-11-12T22:43:45.439Z,26.80
2017-11-12T22:46:12.969Z,23.27
2017-11-12T22:48:40.510Z,24.77
2017-11-12T22:51:08.032Z,24.93
2017-11-12T22:53:35.623Z,28.43
2017-11-12T22:56:03.172Z,22.77
2017-11-12T22:58:30.744Z,27.63
2017-11-12T23:00:58.288Z,26.87
2017-11-12T23:03:25.808Z,27.27
2017-11-12T23:05:53.337Z,25.60
2017-11-12T23:08:20.851Z,27.97
2017-11-12T23:10:48.377Z,25.17
2017-11-12T23:13:15.893Z,27.77
2017-11-12T23:15:43.416Z,29.67
2017-11-12T23:18:11.032Z,28.07
2017-11-12T23:20:38.614Z,29.57
2017-11-12T23:23:06.135Z,27.10
2017-11-12T23:25:33.654Z,26.17
2017-11-12T23:28:01.196Z,25.63
2017-11-12T23:30:28.725Z,30.47
2017-11-12T23:32:56.253Z,27.40
2017-11-12T23:35:23.775Z,23.87
2017-11-12T23:37:51.305Z,23.80
2017-11-12T23:40:18.832Z,21.30
2017-11-12T23:42:46.350Z,24.33
2017-11-12T23:45:13.873Z,20.87
2017-11-12T23:47:41.390Z,22.87
2017-11-12T23:50:08.926Z,20.53
2017-11-12T23:52:36.457Z,17.73
2017-11-12T23:55:03.979Z,21.23
2017-11-12T23:57:31.499Z,20.17
2017-11-12T23:59:59.024Z,20.20
